Time;durP1;ratioP1;P1;durP2;ratioP2;P2;SDS_P1;SDS_P2;PMS_P1;PMS_P2;Temp;Humidity;BMP_temperature;BMP_pressure;BME280_temperature;BME280_humidity;BME280_pressure;Samples;Min_cycle;Max_cycle;Signal;HPM_P1;HPM_P2
2022/10/02 00:01:18;;;;;;;3.07;2.40;;;12.80;99.90;;;;;;5048299;28;20606;-80
2022/10/02 00:03:48;;;;;;;3.50;2.50;;;12.80;99.90;;;;;;5052384;28;20207;-81
2022/10/02 00:06:20;;;;;;;2.70;2.50;;;12.80;99.90;;;;;;5054557;28;20202;-80
2022/10/02 00:08:51;;;;;;;4.00;2.80;;;12.80;99.90;;;;;;5056250;28;20297;-80
2022/10/02 00:11:20;;;;;;;2.67;2.47;;;12.80;99.90;;;;;;5058216;28;20231;-80
2022/10/02 00:13:51;;;;;;;3.40;2.57;;;12.80;99.90;;;;;;5054998;28;20633;-80
2022/10/02 00:16:27;;;;;;;2.60;2.40;;;12.70;99.90;;;;;;5056294;28;20187;-80
2022/10/02 00:18:56;;;;;;;4.57;2.73;;;12.70;99.90;;;;;;5049767;28;20580;-80
2022/10/02 00:21:38;;;;;;;2.70;2.50;;;12.60;99.90;;;;;;5051147;28;20228;-80
2022/10/02 00:24:07;;;;;;;3.07;2.70;;;12.60;99.90;;;;;;5059261;28;20206;-80
2022/10/02 00:26:39;;;;;;;3.23;2.93;;;12.60;99.90;;;;;;5059802;28;20217;-80
2022/10/02 00:29:23;;;;;;;3.77;2.87;;;12.60;99.90;;;;;;5061196;28;20607;-80
2022/10/02 00:31:57;;;;;;;3.17;2.57;;;12.50;99.90;;;;;;5055609;28;20274;-80
2022/10/02 00:34:33;;;;;;;3.27;2.53;;;12.50;99.90;;;;;;5057901;28;20213;-80
2022/10/02 00:37:10;;;;;;;3.00;2.80;;;12.50;99.90;;;;;;5051709;28;20262;-80
2022/10/02 00:39:53;;;;;;;2.97;2.70;;;12.50;99.90;;;;;;5047238;28;20668;-80
2022/10/02 00:42:58;;;;;;;3.73;2.60;;;12.50;99.90;;;;;;5054272;28;20201;-80
2022/10/02 00:45:45;;;;;;;3.60;2.80;;;12.40;99.90;;;;;;5054120;28;20197;-80
2022/10/02 00:48:33;;;;;;;5.97;3.13;;;12.50;99.90;;;;;;5055066;28;20201;-81
2022/10/02 00:51:12;;;;;;;3.63;2.73;;;12.50;99.90;;;;;;5054876;28;20587;-80
2022/10/02 00:53:49;;;;;;;3.03;2.67;;;12.50;99.90;;;;;;5054260;28;20193;-80
2022/10/02 00:56:27;;;;;;;4.17;2.80;;;12.50;99.90;;;;;;5055127;28;20210;-81
2022/10/02 00:59:29;;;;;;;3.37;2.57;;;12.50;99.90;;;;;;5055387;28;20205;-80
2022/10/02 01:02:00;;;;;;;3.43;2.73;;;12.60;99.90;;;;;;5043211;28;20228;-80
2022/10/02 01:04:31;;;;;;;2.70;2.50;;;12.50;99.90;;;;;;5054161;28;20296;-81
2022/10/02 01:07:00;;;;;;;3.30;2.50;;;12.50;99.90;;;;;;5055837;28;20196;-81
2022/10/02 01:09:28;;;;;;;3.50;2.47;;;12.50;99.90;;;;;;5046763;28;20203;-79
2022/10/02 01:11:55;;;;;;;3.53;2.60;;;12.50;99.90;;;;;;5054624;28;20227;-80
2022/10/02 01:14:32;;;;;;;4.17;2.80;;;12.50;99.90;;;;;;5055609;28;20205;-80
2022/10/02 01:16:58;;;;;;;4.17;2.60;;;12.50;99.90;;;;;;5067594;28;20210;-81
2022/10/02 01:19:35;;;;;;;4.10;2.67;;;12.50;99.90;;;;;;5038910;28;20205;-79
2022/10/02 01:22:14;;;;;;;6.10;2.90;;;12.50;99.90;;;;;;5045743;28;20205;-79
2022/10/02 01:24:49;;;;;;;3.17;2.87;;;12.50;99.90;;;;;;5055235;28;20663;-80
2022/10/02 01:27:16;;;;;;;3.40;2.50;;;12.50;99.90;;;;;;5046467;28;20209;-80
2022/10/02 01:29:44;;;;;;;4.07;2.97;;;12.50;99.90;;;;;;5045226;28;20656;-80
2022/10/02 01:32:11;;;;;;;5.03;2.87;;;12.50;99.90;;;;;;5053837;28;20646;-80
2022/10/02 01:34:39;;;;;;;3.53;2.73;;;12.40;99.90;;;;;;5057865;28;20199;-80
2022/10/02 01:37:06;;;;;;;2.83;2.60;;;12.50;99.90;;;;;;5055269;28;20264;-80
2022/10/02 01:39:34;;;;;;;4.20;2.83;;;12.40;99.90;;;;;;5048881;28;20199;-80
2022/10/02 01:42:02;;;;;;;2.67;2.47;;;12.40;99.90;;;;;;5051023;28;20297;-81
2022/10/02 01:44:29;;;;;;;3.87;2.77;;;12.40;99.90;;;;;;5045346;28;20204;-81
2022/10/02 01:47:02;;;;;;;3.80;2.90;;;12.40;99.90;;;;;;5054535;28;20193;-81
2022/10/02 01:49:43;;;;;;;3.23;2.90;;;12.40;99.90;;;;;;5045428;28;20217;-81
2022/10/02 01:52:22;;;;;;;7.40;2.97;;;12.40;99.90;;;;;;5044816;28;20217;-80
2022/10/02 01:55:03;;;;;;;4.97;2.80;;;12.40;99.90;;;;;;5051200;28;20207;-81
2022/10/02 01:57:44;;;;;;;3.10;2.50;;;12.40;99.90;;;;;;5048170;28;20197;-80
2022/10/02 02:00:16;;;;;;;3.70;2.80;;;12.40;99.90;;;;;;5054096;28;20225;-80
2022/10/02 02:02:52;;;;;;;3.43;2.80;;;12.40;99.90;;;;;;5066576;28;20195;-80
2022/10/02 02:05:32;;;;;;;3.20;2.70;;;12.50;99.90;;;;;;5065614;28;20209;-79
2022/10/02 02:08:08;;;;;;;3.13;2.83;;;12.50;99.90;;;;;;5072245;28;20197;-81
2022/10/02 02:10:46;;;;;;;3.53;2.80;;;12.50;99.90;;;;;;5062850;28;20224;-80
2022/10/02 02:13:21;;;;;;;5.17;2.87;;;12.60;99.90;;;;;;5070996;28;20213;-80
2022/10/02 02:15:54;;;;;;;2.80;2.60;;;12.60;99.90;;;;;;5070485;28;20196;-80
2022/10/02 02:18:28;;;;;;;5.17;2.87;;;12.70;99.90;;;;;;5059968;28;20191;-80
2022/10/02 02:20:59;;;;;;;3.13;2.53;;;12.70;99.90;;;;;;5059894;28;20238;-80
2022/10/02 02:23:30;;;;;;;3.40;2.83;;;12.70;99.90;;;;;;5058281;28;20247;-80
2022/10/02 02:26:02;;;;;;;2.87;2.67;;;12.70;99.90;;;;;;5068518;28;20197;-81
2022/10/02 02:28:33;;;;;;;2.60;2.40;;;12.70;99.90;;;;;;5061110;28;20206;-80
2022/10/02 02:31:01;;;;;;;4.87;2.80;;;12.80;99.90;;;;;;5067152;28;20221;-80
2022/10/02 02:33:35;;;;;;;3.87;2.50;;;12.70;99.90;;;;;;5064369;28;20222;-80
2022/10/02 02:36:07;;;;;;;3.33;2.90;;;12.80;99.90;;;;;;5064312;28;20206;-80
2022/10/02 02:38:39;;;;;;;4.30;2.50;;;12.80;99.90;;;;;;5056243;28;20581;-80
2022/10/02 02:41:09;;;;;;;3.47;2.90;;;12.80;99.90;;;;;;5058662;28;20231;-80
2022/10/02 02:43:43;;;;;;;4.17;2.70;;;12.80;99.90;;;;;;5062465;28;20633;-80
2022/10/02 02:46:18;;;;;;;2.80;2.60;;;12.80;99.90;;;;;;5060038;28;20352;-80
2022/10/02 02:48:50;;;;;;;2.77;2.40;;;12.80;99.90;;;;;;5055721;28;20212;-81
2022/10/02 02:51:20;;;;;;;3.70;2.97;;;12.80;99.90;;;;;;5051439;28;20218;-80
2022/10/02 02:53:53;;;;;;;3.57;2.53;;;12.80;99.90;;;;;;5062118;28;20190;-81
2022/10/02 02:56:21;;;;;;;2.87;2.67;;;12.70;99.90;;;;;;5062221;28;20205;-81
2022/10/02 02:58:55;;;;;;;2.60;2.40;;;12.70;99.90;;;;;;5062089;28;20202;-80
2022/10/02 03:01:22;;;;;;;2.80;2.60;;;12.70;99.90;;;;;;5050882;28;20222;-80
2022/10/02 03:03:48;;;;;;;2.70;2.50;;;12.70;99.90;;;;;;5053608;28;20201;-81
2022/10/02 03:06:30;;;;;;;3.13;2.40;;;12.70;99.90;;;;;;5056656;28;20241;-80
2022/10/02 03:08:58;;;;;;;3.87;2.80;;;12.70;99.90;;;;;;5060661;28;20562;-80
2022/10/02 03:11:40;;;;;;;2.73;2.50;;;12.80;99.90;;;;;;5059557;28;20210;-80
2022/10/02 03:14:23;;;;;;;3.57;3.00;;;12.70;99.90;;;;;;5053024;28;20203;-80
2022/10/02 03:17:02;;;;;;;3.47;2.53;;;12.80;99.90;;;;;;5059548;28;20572;-81
2022/10/02 03:19:41;;;;;;;3.20;2.90;;;12.80;99.90;;;;;;5048750;28;20290;-80
2022/10/02 03:22:16;;;;;;;3.80;2.93;;;12.80;99.90;;;;;;5051716;28;20214;-80
2022/10/02 03:24:49;;;;;;;2.70;2.50;;;12.80;99.90;;;;;;5055889;28;20293;-81
2022/10/02 03:27:24;;;;;;;3.97;2.53;;;12.80;99.90;;;;;;5046953;28;20578;-80
2022/10/02 03:29:58;;;;;;;3.60;2.70;;;12.80;99.90;;;;;;5051120;28;20670;-80
2022/10/02 03:32:27;;;;;;;3.20;2.63;;;12.80;99.90;;;;;;5046569;28;20233;-80
2022/10/02 03:34:55;;;;;;;2.50;2.30;;;12.80;99.90;;;;;;5046040;28;20207;-81
2022/10/02 03:37:24;;;;;;;3.30;2.43;;;12.80;99.90;;;;;;5043999;28;20208;-79
2022/10/02 03:39:51;;;;;;;3.60;2.60;;;12.80;99.90;;;;;;5046721;28;20746;-81
2022/10/02 03:42:24;;;;;;;3.00;2.70;;;12.80;99.90;;;;;;5042736;28;20199;-81
2022/10/02 03:44:52;;;;;;;3.20;2.80;;;12.80;99.90;;;;;;5052639;28;20218;-81
2022/10/02 03:47:19;;;;;;;3.17;2.87;;;12.80;99.90;;;;;;5052216;28;20222;-79
2022/10/02 03:53:21;;;;;;;2.80;2.60;;;12.90;99.90;;;;;;5044319;28;20218;-78
2022/10/02 03:55:53;;;;;;;2.73;2.53;;;12.90;99.90;;;;;;5047214;28;20206;-77
2022/10/02 03:58:21;;;;;;;2.83;2.53;;;12.90;99.90;;;;;;5049857;28;20210;-78
2022/10/02 04:00:57;;;;;;;3.70;2.63;;;12.90;99.90;;;;;;5050245;28;20275;-77
2022/10/02 04:03:27;;;;;;;4.30;2.83;;;12.90;99.90;;;;;;5049639;28;20201;-78
2022/10/02 04:05:59;;;;;;;3.60;2.57;;;12.90;99.90;;;;;;5051630;28;20190;-79
2022/10/02 04:08:32;;;;;;;3.50;2.60;;;12.90;99.90;;;;;;5051366;28;20213;-78
2022/10/02 04:11:05;;;;;;;2.73;2.53;;;13.00;99.90;;;;;;5051641;28;20214;-78
2022/10/02 04:13:37;;;;;;;3.00;2.30;;;13.00;99.90;;;;;;5042792;28;20237;-78
2022/10/02 04:16:12;;;;;;;3.03;2.73;;;13.00;99.90;;;;;;5048416;28;20203;-79
2022/10/02 04:18:47;;;;;;;2.43;2.30;;;13.00;99.90;;;;;;5045103;28;20231;-78
2022/10/02 04:21:22;;;;;;;3.63;2.40;;;13.00;99.90;;;;;;5041670;28;20230;-78
2022/10/02 04:23:53;;;;;;;4.47;2.83;;;13.10;99.90;;;;;;5051547;28;20674;-79
2022/10/02 04:26:25;;;;;;;4.13;2.40;;;13.00;99.90;;;;;;5051224;28;20203;-78
2022/10/02 04:28:57;;;;;;;3.47;2.57;;;13.00;99.90;;;;;;5046522;28;20201;-78
2022/10/02 04:31:27;;;;;;;3.93;2.40;;;13.10;99.90;;;;;;5045623;28;20213;-78
2022/10/02 04:33:55;;;;;;;2.63;2.40;;;13.10;99.90;;;;;;5051699;28;20215;-79
2022/10/02 04:36:39;;;;;;;2.50;2.30;;;13.10;99.90;;;;;;5051263;28;20203;-78
2022/10/02 04:39:36;;;;;;;2.83;2.37;;;13.10;99.90;;;;;;5051385;28;20198;-78
2022/10/02 04:42:23;;;;;;;3.90;2.60;;;13.10;99.90;;;;;;5051056;28;20204;-79
2022/10/02 04:45:12;;;;;;;3.67;2.60;;;13.00;99.90;;;;;;5041901;28;20636;-78
2022/10/02 04:48:27;;;;;;;2.90;2.60;;;13.00;99.90;;;;;;5044887;28;20195;-78
2022/10/02 04:51:01;;;;;;;2.63;2.43;;;13.00;99.90;;;;;;5040561;28;20253;-78
2022/10/02 04:53:43;;;;;;;2.90;2.70;;;13.00;99.90;;;;;;5063771;28;20206;-77
2022/10/02 04:56:46;;;;;;;2.80;2.50;;;13.00;99.90;;;;;;5039831;28;20204;-76
2022/10/02 04:59:26;;;;;;;3.93;2.43;;;13.00;99.90;;;;;;5045965;28;20229;-78
2022/10/02 05:02:01;;;;;;;2.80;2.60;;;13.00;99.90;;;;;;5051766;28;20230;-78
2022/10/02 05:04:51;;;;;;;2.60;2.40;;;13.00;99.90;;;;;;5051491;28;20203;-78
2022/10/02 05:07:33;;;;;;;2.37;2.27;;;13.00;99.90;;;;;;5051359;28;20206;-79
2022/10/02 05:10:14;;;;;;;3.60;2.33;;;12.90;99.90;;;;;;5056683;28;20222;-81
2022/10/02 05:12:55;;;;;;;3.07;2.33;;;13.00;99.90;;;;;;5056558;28;20215;-80
2022/10/02 05:15:55;;;;;;;2.73;2.47;;;13.00;99.90;;;;;;5039960;28;20210;-79
2022/10/02 05:18:37;;;;;;;2.87;2.50;;;13.00;99.90;;;;;;5036571;28;20298;-79
2022/10/02 05:21:29;;;;;;;4.63;2.50;;;13.00;99.90;;;;;;5038492;28;20628;-79
2022/10/02 05:24:09;;;;;;;3.60;2.80;;;13.00;99.90;;;;;;5046696;28;20203;-81
2022/10/02 05:27:06;;;;;;;3.43;2.70;;;13.00;99.90;;;;;;5056054;28;20202;-79
2022/10/02 05:30:03;;;;;;;4.20;2.53;;;13.00;99.90;;;;;;5038431;28;20230;-78
2022/10/02 05:32:59;;;;;;;3.33;2.60;;;13.00;99.90;;;;;;5054931;28;20247;-78
2022/10/02 05:35:41;;;;;;;2.73;2.30;;;13.00;99.90;;;;;;5045150;28;20210;-78
2022/10/02 05:38:21;;;;;;;3.20;2.60;;;13.00;99.90;;;;;;5053085;28;20203;-83
2022/10/02 05:40:56;;;;;;;2.40;2.30;;;13.10;99.90;;;;;;5057274;28;20635;-81
2022/10/02 05:43:30;;;;;;;3.60;2.40;;;13.10;99.90;;;;;;5055442;28;20213;-79
2022/10/02 05:46:01;;;;;;;3.50;2.50;;;13.10;99.90;;;;;;5057359;28;20207;-83
2022/10/02 05:48:33;;;;;;;2.60;2.40;;;13.10;99.90;;;;;;5065631;28;20198;-80
2022/10/02 05:51:06;;;;;;;2.43;2.27;;;13.10;99.90;;;;;;5075314;22;20230;-78
2022/10/02 05:53:39;;;;;;;2.40;2.30;;;13.10;99.90;;;;;;5044183;28;20687;-77
2022/10/02 05:56:11;;;;;;;2.40;2.20;;;13.20;99.90;;;;;;5052348;28;20210;-78
2022/10/02 05:58:44;;;;;;;2.50;2.30;;;13.20;99.90;;;;;;5048372;28;20187;-78
2022/10/02 06:01:16;;;;;;;2.83;2.53;;;13.20;99.90;;;;;;5054907;28;20250;-78
2022/10/02 06:03:48;;;;;;;3.00;2.60;;;13.20;99.90;;;;;;5051759;28;20622;-78
2022/10/02 06:06:20;;;;;;;3.20;2.37;;;13.20;99.90;;;;;;5054113;28;20702;-78
2022/10/02 06:08:53;;;;;;;2.30;2.20;;;13.30;99.90;;;;;;5052170;28;20196;-78
2022/10/02 06:11:26;;;;;;;2.67;2.47;;;13.30;99.90;;;;;;5054657;28;20587;-78
2022/10/02 06:13:58;;;;;;;2.47;2.37;;;13.30;99.90;;;;;;5051088;28;20212;-78
2022/10/02 06:16:32;;;;;;;2.87;2.60;;;13.30;99.90;;;;;;5059500;28;20203;-78
2022/10/02 06:19:05;;;;;;;2.60;2.40;;;13.30;99.90;;;;;;5045419;28;20229;-78
2022/10/02 06:21:39;;;;;;;2.60;2.40;;;13.30;99.90;;;;;;5044985;28;20222;-78
2022/10/02 06:24:16;;;;;;;4.37;3.07;;;13.30;99.90;;;;;;5054994;28;20199;-78
2022/10/02 06:26:49;;;;;;;4.17;2.70;;;13.30;99.90;;;;;;5053836;28;20215;-78
2022/10/02 06:29:21;;;;;;;3.07;2.57;;;13.40;99.90;;;;;;5060843;28;20210;-78
2022/10/02 06:31:54;;;;;;;2.87;2.60;;;13.50;99.90;;;;;;5057045;28;20210;-77
2022/10/02 06:34:22;;;;;;;3.97;2.67;;;13.50;99.90;;;;;;5045147;28;20273;-78
2022/10/02 06:37:11;;;;;;;3.30;2.97;;;13.60;99.90;;;;;;5049871;28;20195;-77
2022/10/02 06:39:59;;;;;;;3.70;2.70;;;13.60;99.90;;;;;;5047227;28;20564;-78
2022/10/02 06:42:37;;;;;;;2.90;2.60;;;13.60;99.90;;;;;;5046998;28;20237;-78
2022/10/02 06:45:15;;;;;;;3.13;2.70;;;13.70;99.90;;;;;;5056980;28;20188;-78
2022/10/02 06:47:58;;;;;;;3.30;3.00;;;13.70;99.90;;;;;;5050572;28;20188;-78
2022/10/02 06:50:40;;;;;;;3.50;3.03;;;13.80;99.90;;;;;;5062098;28;20733;-78
2022/10/02 06:53:19;;;;;;;3.10;2.80;;;13.80;99.90;;;;;;5049289;28;20207;-78
2022/10/02 06:55:58;;;;;;;4.10;3.10;;;13.90;99.90;;;;;;5053581;28;20215;-78
2022/10/02 06:58:47;;;;;;;4.97;2.90;;;13.90;99.90;;;;;;5048017;28;20261;-78
2022/10/02 07:01:23;;;;;;;3.93;3.00;;;14.00;99.90;;;;;;5046136;28;20232;-77
2022/10/02 07:04:08;;;;;;;4.90;3.03;;;14.10;99.90;;;;;;5055326;28;20248;-77
2022/10/02 07:06:45;;;;;;;5.07;3.50;;;14.20;99.90;;;;;;5045271;28;20187;-78
2022/10/02 07:09:29;;;;;;;4.00;3.70;;;14.20;99.90;;;;;;5047536;28;20205;-78
2022/10/02 07:12:09;;;;;;;4.10;3.80;;;14.30;99.90;;;;;;5046912;28;20229;-78
2022/10/02 07:14:56;;;;;;;5.13;4.50;;;14.30;99.90;;;;;;5064219;28;20233;-77
2022/10/02 07:17:38;;;;;;;8.00;7.40;;;14.40;99.90;;;;;;5048492;28;20198;-78
2022/10/02 07:20:18;;;;;;;7.77;7.17;;;14.40;99.90;;;;;;5059879;28;20197;-77
2022/10/02 07:23:05;;;;;;;7.73;7.13;;;14.50;99.90;;;;;;5051372;28;20196;-78
2022/10/02 07:26:14;;;;;;;7.10;6.60;;;14.40;99.90;;;;;;5038062;28;20599;-78
2022/10/02 07:28:53;;;;;;;9.40;8.50;;;14.40;99.90;;;;;;5039057;28;20212;-78
2022/10/02 07:31:31;;;;;;;8.97;8.20;;;14.40;99.90;;;;;;5064376;28;20219;-78
2022/10/02 07:34:16;;;;;;;9.67;8.67;;;14.50;99.90;;;;;;5045103;28;20223;-78
2022/10/02 07:36:53;;;;;;;7.87;7.27;;;14.50;99.90;;;;;;5036365;28;20685;-77
2022/10/02 07:39:32;;;;;;;8.27;7.57;;;14.70;99.90;;;;;;5047852;28;20196;-78
2022/10/02 07:42:24;;;;;;;7.90;7.40;;;14.80;99.90;;;;;;5046245;28;20226;-76
2022/10/02 07:45:20;;;;;;;8.63;7.70;;;14.90;99.90;;;;;;5024430;28;20215;-78
2022/10/02 07:48:08;;;;;;;7.90;7.37;;;15.00;99.90;;;;;;5045321;28;20195;-78
2022/10/02 07:50:47;;;;;;;8.90;8.10;;;15.10;99.90;;;;;;5047110;28;20213;-77
2022/10/02 07:53:23;;;;;;;9.10;8.33;;;15.20;99.90;;;;;;5044820;28;20231;-77
2022/10/02 07:55:53;;;;;;;8.00;7.47;;;15.30;99.90;;;;;;5046306;28;20231;-78
2022/10/02 07:58:30;;;;;;;8.30;7.53;;;15.50;99.90;;;;;;5046965;28;20661;-77
2022/10/02 08:01:01;;;;;;;7.27;6.67;;;15.60;99.90;;;;;;5046079;28;20265;-78
2022/10/02 08:03:33;;;;;;;6.83;6.23;;;16.20;99.90;;;;;;5040637;28;20566;-78
2022/10/02 08:06:01;;;;;;;7.20;6.60;;;16.60;99.90;;;;;;5043332;28;20205;-78
2022/10/02 08:08:37;;;;;;;4.90;4.40;;;17.20;99.90;;;;;;5036003;28;20192;-78
2022/10/02 08:11:10;;;;;;;3.60;2.80;;;17.50;99.90;;;;;;5049629;28;20219;-78
2022/10/02 08:13:41;;;;;;;5.63;2.60;;;17.60;99.90;;;;;;5052063;28;20218;-79
2022/10/02 08:16:12;;;;;;;2.80;2.60;;;17.60;99.90;;;;;;5052230;28;20196;-78
2022/10/02 08:18:42;;;;;;;3.83;2.77;;;17.50;99.90;;;;;;5048727;28;20192;-78
2022/10/02 08:21:14;;;;;;;7.90;3.10;;;17.40;99.90;;;;;;5047742;28;20219;-77
2022/10/02 08:23:47;;;;;;;4.37;2.80;;;17.50;99.90;;;;;;5046975;28;20187;-78
2022/10/02 08:26:18;;;;;;;4.73;2.50;;;17.50;99.90;;;;;;5056828;28;20205;-77
2022/10/02 08:28:52;;;;;;;3.67;2.40;;;17.60;99.90;;;;;;5045123;28;20267;-77
2022/10/02 08:31:22;;;;;;;2.93;2.27;;;17.60;99.90;;;;;;5044040;28;20327;-78
2022/10/02 08:33:49;;;;;;;2.90;2.60;;;17.80;99.90;;;;;;5050970;28;20216;-78
2022/10/02 08:36:37;;;;;;;2.60;2.40;;;17.90;99.90;;;;;;5046732;28;20227;-78
2022/10/02 08:39:23;;;;;;;5.07;2.63;;;17.90;99.90;;;;;;5045816;28;20204;-77
2022/10/02 08:42:10;;;;;;;3.07;2.40;;;17.90;99.90;;;;;;5045272;28;20208;-78
2022/10/02 08:45:07;;;;;;;2.60;2.40;;;18.30;99.90;;;;;;5043921;28;20205;-78
2022/10/02 08:48:05;;;;;;;4.43;2.50;;;19.20;99.90;;;;;;5048203;28;20263;-77
2022/10/02 08:51:11;;;;;;;2.50;2.30;;;19.90;99.90;;;;;;5064884;28;20226;-78
2022/10/02 08:54:07;;;;;;;2.50;2.30;;;20.40;99.90;;;;;;5044739;28;20695;-78
2022/10/02 08:56:42;;;;;;;2.97;2.40;;;20.50;99.90;;;;;;5048031;28;20198;-77
2022/10/02 08:59:38;;;;;;;3.87;2.40;;;20.30;99.90;;;;;;5054004;28;20210;-76
2022/10/02 09:02:46;;;;;;;2.90;2.30;;;20.00;99.90;;;;;;5058366;28;20780;-78
2022/10/02 09:05:45;;;;;;;2.20;2.10;;;19.90;99.90;;;;;;5060052;28;20200;-77
2022/10/02 09:08:39;;;;;;;2.30;2.10;;;20.00;99.90;;;;;;5060535;28;20265;-77
2022/10/02 09:11:43;;;;;;;2.67;2.03;;;20.10;99.90;;;;;;5051253;28;20709;-77
2022/10/02 09:14:48;;;;;;;3.53;2.30;;;20.20;99.90;;;;;;5047939;28;20223;-77
2022/10/02 09:17:48;;;;;;;2.10;2.00;;;20.20;99.90;;;;;;5047103;28;20562;-77
2022/10/02 09:20:40;;;;;;;2.60;2.30;;;20.30;99.90;;;;;;5053473;28;20200;-77
2022/10/02 09:26:11;;;;;;;2.57;2.13;;;20.40;99.90;;;;;;5090851;27;20616;-83
2022/10/02 09:29:08;;;;;;;2.17;1.97;;;21.10;99.90;;;;;;5095947;28;20516;-77
2022/10/02 09:32:15;;;;;;;2.10;2.00;;;21.40;99.90;;;;;;5083536;28;20225;-78
2022/10/02 09:35:21;;;;;;;2.17;2.07;;;21.50;99.90;;;;;;5091659;28;20186;-77
2022/10/02 09:38:20;;;;;;;2.10;2.00;;;21.90;99.90;;;;;;5093017;28;20194;-77
2022/10/02 09:41:18;;;;;;;2.20;2.10;;;22.20;99.90;;;;;;5069833;28;20213;-77
2022/10/02 09:44:18;;;;;;;2.20;2.10;;;22.40;99.90;;;;;;5086954;28;20591;-78
2022/10/02 09:47:09;;;;;;;2.30;2.10;;;22.60;99.90;;;;;;5071402;28;20268;-77
2022/10/02 09:50:06;;;;;;;2.27;2.17;;;22.30;99.90;;;;;;5089670;28;20208;-77
2022/10/02 09:52:58;;;;;;;2.73;2.33;;;22.40;99.90;;;;;;5089638;28;20197;-77
2022/10/02 09:56:04;;;;;;;2.27;2.17;;;22.30;99.90;;;;;;5093201;28;20190;-77
2022/10/02 09:59:04;;;;;;;2.13;2.00;;;21.90;99.90;;;;;;5085558;28;20223;-77
2022/10/02 10:02:04;;;;;;;2.20;2.10;;;21.60;99.90;;;;;;5050929;28;20229;-77
2022/10/02 10:05:07;;;;;;;2.00;1.90;;;21.20;99.90;;;;;;5090111;28;20696;-77
2022/10/02 10:08:21;;;;;;;1.90;1.80;;;21.10;99.90;;;;;;5083852;28;20277;-80
2022/10/02 10:11:38;;;;;;;2.90;1.73;;;20.80;99.90;;;;;;5085100;28;20275;-78
2022/10/02 10:14:58;;;;;;;1.90;1.80;;;20.50;99.90;;;;;;5060510;28;20687;-78
2022/10/02 10:18:04;;;;;;;2.00;1.80;;;20.50;99.90;;;;;;5052016;28;20751;-76
2022/10/02 10:21:03;;;;;;;2.00;1.90;;;20.50;99.90;;;;;;5080491;28;20270;-78
2022/10/02 10:24:12;;;;;;;1.80;1.70;;;20.60;99.90;;;;;;5080520;28;20198;-77
2022/10/02 10:27:04;;;;;;;1.90;1.80;;;20.60;99.90;;;;;;5040842;28;20284;-78
2022/10/02 10:30:03;;;;;;;1.90;1.80;;;20.80;99.90;;;;;;5082407;28;20741;-77
2022/10/02 10:33:01;;;;;;;2.50;2.00;;;20.80;99.90;;;;;;5091478;28;20245;-77
2022/10/02 10:35:53;;;;;;;1.80;1.70;;;20.70;99.90;;;;;;5085917;28;20182;-78
2022/10/02 10:38:37;;;;;;;2.20;1.70;;;20.70;99.90;;;;;;5070526;28;20195;-79
2022/10/02 10:41:27;;;;;;;1.90;1.80;;;20.70;99.90;;;;;;5079435;28;20719;-77
2022/10/02 10:44:18;;;;;;;1.80;1.80;;;20.70;99.90;;;;;;5080862;28;20685;-77
2022/10/02 10:47:17;;;;;;;1.73;1.70;;;20.50;99.90;;;;;;5081205;28;20194;-77
2022/10/02 10:50:16;;;;;;;2.00;1.90;;;20.30;99.90;;;;;;5076884;28;20239;-77
2022/10/02 10:53:07;;;;;;;1.83;1.80;;;20.20;99.90;;;;;;5075631;28;20208;-77
2022/10/02 10:55:56;;;;;;;2.10;2.00;;;20.00;99.90;;;;;;5076625;28;20194;-77
2022/10/02 10:58:39;;;;;;;1.90;1.80;;;19.90;99.90;;;;;;5088270;28;20667;-78
2022/10/02 11:01:14;;;;;;;1.80;1.70;;;20.00;99.90;;;;;;5084608;28;20709;-77
2022/10/02 11:04:06;;;;;;;1.70;1.70;;;20.10;99.90;;;;;;5083591;28;20186;-78
2022/10/02 11:06:55;;;;;;;1.80;1.80;;;20.30;99.90;;;;;;5079101;28;20583;-77
2022/10/02 11:09:53;;;;;;;1.70;1.70;;;20.50;99.90;;;;;;5089871;28;20611;-77
2022/10/02 11:12:52;;;;;;;1.60;1.60;;;20.80;99.90;;;;;;5080854;28;20210;-77
2022/10/02 11:15:36;;;;;;;1.80;1.80;;;21.00;99.90;;;;;;5089400;28;20187;-77
2022/10/02 11:18:25;;;;;;;1.83;1.77;;;21.20;99.90;;;;;;5089399;28;20257;-77
2022/10/02 11:21:45;;;;;;;1.90;1.80;;;21.40;99.90;;;;;;5080764;28;20646;-76
2022/10/02 11:24:40;;;;;;;1.90;1.80;;;21.60;99.90;;;;;;5025908;28;20674;-77
2022/10/02 11:27:27;;;;;;;1.87;1.77;;;21.70;99.90;;;;;;5063091;28;20229;-77
2022/10/02 11:30:22;;;;;;;1.97;1.87;;;21.90;99.90;;;;;;5074000;28;20214;-76
2022/10/02 11:33:43;;;;;;;2.00;1.90;;;22.10;99.90;;;;;;5084912;28;20269;-77
2022/10/02 11:36:42;;;;;;;1.83;1.80;;;22.30;99.90;;;;;;4985977;28;20205;-77
2022/10/02 11:39:35;;;;;;;2.00;1.90;;;22.30;99.90;;;;;;5006498;28;20201;-77
2022/10/02 11:42:27;;;;;;;2.10;2.00;;;22.20;99.90;;;;;;5084054;28;20627;-77
2022/10/02 11:45:12;;;;;;;2.20;2.10;;;21.90;99.90;;;;;;5083257;28;20206;-75
2022/10/02 11:48:08;;;;;;;1.90;1.80;;;21.70;99.90;;;;;;5078771;28;20312;-76
2022/10/02 11:50:59;;;;;;;2.57;2.40;;;21.30;99.90;;;;;;5076637;28;20215;-77
2022/10/02 11:53:42;;;;;;;1.77;1.77;;;21.00;99.90;;;;;;5088016;28;20194;-78
2022/10/02 11:56:35;;;;;;;1.80;1.80;;;20.70;99.90;;;;;;5089528;28;20194;-77
2022/10/02 11:59:17;;;;;;;2.00;1.90;;;20.60;99.90;;;;;;5086530;28;20658;-77
2022/10/02 12:01:52;;;;;;;1.87;1.77;;;20.70;99.90;;;;;;5076664;28;20210;-78
2022/10/02 12:04:39;;;;;;;2.00;1.90;;;20.80;99.90;;;;;;5080918;28;20201;-78
2022/10/02 12:07:20;;;;;;;1.90;1.90;;;20.70;99.90;;;;;;5085858;28;20205;-76
2022/10/02 12:10:00;;;;;;;3.90;3.60;;;20.50;99.90;;;;;;5069759;28;20195;-78
2022/10/02 12:12:41;;;;;;;4.57;4.27;;;20.30;99.90;;;;;;5071310;28;20251;-81
2022/10/02 12:15:22;;;;;;;4.10;3.90;;;20.00;99.90;;;;;;5076559;28;20197;-80
2022/10/02 12:18:04;;;;;;;3.90;3.70;;;19.80;99.90;;;;;;5080751;28;20193;-77
2022/10/02 12:26:59;;;;;;;3.50;3.30;;;19.30;99.90;;;;;;5074429;28;20236;-77
2022/10/02 12:29:39;;;;;;;4.30;3.90;;;19.20;99.90;;;;;;5083313;28;20196;-77
2022/10/02 12:32:21;;;;;;;3.70;3.50;;;18.40;99.90;;;;;;5074748;28;20218;-73
2022/10/02 12:34:59;;;;;;;4.70;4.30;;;17.90;99.90;;;;;;5079138;28;20192;-73
2022/10/02 12:37:32;;;;;;;3.10;2.90;;;17.30;99.90;;;;;;5066248;28;20195;-73
2022/10/02 12:40:07;;;;;;;5.70;3.63;;;17.00;99.90;;;;;;5077722;28;20733;-73
2022/10/02 12:42:59;;;;;;;3.57;3.17;;;16.70;99.90;;;;;;5070413;28;20633;-73
2022/10/02 12:45:57;;;;;;;4.50;4.10;;;16.50;99.90;;;;;;5072137;28;20222;-74
2022/10/02 12:48:44;;;;;;;3.50;3.20;;;16.30;99.90;;;;;;5077180;28;20197;-74
2022/10/02 12:51:33;;;;;;;6.83;6.33;;;16.00;99.90;;;;;;5076274;28;20249;-79
2022/10/02 12:54:59;;;;;;;7.50;6.90;;;15.70;99.90;;;;;;5069317;28;20222;-77
2022/10/02 12:57:54;;;;;;;9.40;8.80;;;15.50;99.90;;;;;;5101529;28;20492;-77
2022/10/02 13:00:25;;;;;;;10.50;9.90;;;15.30;99.90;;;;;;5088618;28;20198;-77
2022/10/02 13:03:24;;;;;;;10.07;9.47;;;15.20;99.90;;;;;;5094437;28;20204;-76
2022/10/02 13:06:20;;;;;;;10.70;9.97;;;15.20;99.90;;;;;;5072910;28;20323;-77
2022/10/02 13:09:01;;;;;;;10.47;9.73;;;15.10;99.90;;;;;;5080655;28;20204;-77
2022/10/02 13:11:37;;;;;;;10.40;9.60;;;15.00;99.90;;;;;;5065066;28;20292;-79
2022/10/02 13:14:25;;;;;;;10.27;9.67;;;15.00;99.90;;;;;;5083360;28;20202;-79
2022/10/02 13:17:10;;;;;;;11.53;10.33;;;15.00;99.90;;;;;;5065322;28;20191;-80
2022/10/02 13:19:48;;;;;;;10.30;9.60;;;14.90;99.90;;;;;;5067333;28;20213;-84
2022/10/02 13:22:22;;;;;;;10.30;9.70;;;15.00;99.90;;;;;;5081338;28;20274;-80
2022/10/02 13:25:00;;;;;;;10.50;9.90;;;14.90;99.90;;;;;;5072871;28;20220;-79
2022/10/02 13:27:37;;;;;;;10.50;9.90;;;14.80;99.90;;;;;;5076850;28;20232;-79
2022/10/02 13:30:15;;;;;;;10.60;10.00;;;14.80;99.90;;;;;;5084524;28;20198;-79
2022/10/02 13:33:04;;;;;;;10.70;10.10;;;14.80;99.90;;;;;;5058543;28;20192;-77
2022/10/02 13:36:05;;;;;;;10.00;9.40;;;14.70;99.90;;;;;;5070637;28;20190;-77
2022/10/02 13:38:51;;;;;;;9.90;9.30;;;14.70;99.90;;;;;;5076201;28;20207;-77
2022/10/02 13:41:27;;;;;;;10.10;9.50;;;14.70;99.90;;;;;;5082651;28;20226;-77
2022/10/02 13:44:07;;;;;;;10.00;9.40;;;14.80;99.90;;;;;;5076643;28;20220;-77
2022/10/02 13:46:50;;;;;;;10.00;9.40;;;14.60;99.90;;;;;;5078321;28;20204;-77
2022/10/02 13:49:31;;;;;;;9.87;9.30;;;14.60;99.90;;;;;;5078476;28;20296;-77
2022/10/02 13:52:10;;;;;;;10.00;9.50;;;14.60;99.90;;;;;;5071251;28;20221;-76
2022/10/02 13:54:57;;;;;;;9.90;9.40;;;14.70;99.90;;;;;;5079577;28;20216;-77
2022/10/02 13:57:43;;;;;;;9.90;9.30;;;14.70;99.90;;;;;;5060182;28;20207;-76
2022/10/02 14:00:22;;;;;;;9.90;9.40;;;14.60;99.90;;;;;;5080515;28;20622;-77
2022/10/02 14:03:01;;;;;;;9.77;9.27;;;14.60;99.90;;;;;;5059386;28;20256;-77
2022/10/02 14:05:41;;;;;;;9.97;9.47;;;14.50;99.90;;;;;;5062386;28;20207;-80
2022/10/02 14:08:30;;;;;;;9.90;9.40;;;14.40;99.90;;;;;;5073416;28;20219;-79
2022/10/02 14:11:07;;;;;;;9.90;9.40;;;14.40;99.90;;;;;;5071221;28;20212;-79
2022/10/02 14:13:45;;;;;;;9.83;9.33;;;14.40;99.90;;;;;;5073056;28;20223;-79